Time;durP1;ratioP1;P1;durP2;ratioP2;P2;SDS_P1;SDS_P2;PMS_P1;PMS_P2;Temp;Humidity;BMP_temperature;BMP_pressure;BME280_temperature;BME280_humidity;BME280_pressure;Samples;Min_cycle;Max_cycle;Signal;HPM_P1;HPM_P2
2023/05/17 00:03:43;;;;;;;2.67;0.98;;;;;;;7.25;100.00;98721.88;15280848;19;20036;-47
2023/05/17 00:09:07;;;;;;;3.65;1.00;;;;;;;7.18;100.00;98726.09;15282315;19;20022;-43
2023/05/17 00:14:35;;;;;;;3.90;0.93;;;;;;;7.11;100.00;98733.81;15280193;19;20025;-47
2023/05/17 00:20:00;;;;;;;2.17;0.80;;;;;;;7.12;100.00;98737.31;15271073;19;20021;-46
2023/05/17 00:25:25;;;;;;;4.13;0.90;;;;;;;7.05;100.00;98743.22;15276975;19;20366;-45
2023/05/17 00:30:52;;;;;;;3.08;1.00;;;;;;;7.02;100.00;98740.78;15282350;19;20090;-44
2023/05/17 00:36:17;;;;;;;3.17;1.15;;;;;;;7.00;100.00;98745.44;15280911;19;20078;-44
2023/05/17 00:41:41;;;;;;;4.07;0.93;;;;;;;6.93;100.00;98741.59;15277961;19;20021;-44
2023/05/17 00:47:09;;;;;;;2.97;0.90;;;;;;;6.90;100.00;98742.69;15278403;19;20015;-44
2023/05/17 00:52:35;;;;;;;3.33;1.10;;;;;;;6.86;100.00;98743.09;15272083;19;20014;-45
2023/05/17 00:58:00;;;;;;;3.97;1.08;;;;;;;6.72;100.00;98745.09;15276870;19;20030;-43
2023/05/17 01:03:27;;;;;;;2.17;0.90;;;;;;;6.55;100.00;98733.13;15279336;19;20101;-43
2023/05/17 01:08:52;;;;;;;2.58;1.00;;;;;;;6.36;100.00;98743.63;15279194;19;20410;-45
2023/05/17 01:14:26;;;;;;;1.35;0.80;;;;;;;6.23;100.00;98749.16;15278309;19;20459;-43
2023/05/17 01:20:04;;;;;;;2.38;0.82;;;;;;;6.07;100.00;98749.56;15278131;19;20078;-45
2023/05/17 01:25:58;;;;;;;3.05;0.90;;;;;;;5.94;100.00;98757.72;15268229;19;20081;-43
2023/05/17 01:31:28;;;;;;;2.45;0.90;;;;;;;5.81;100.00;98757.81;15278184;19;20094;-43
2023/05/17 01:36:52;;;;;;;2.22;0.80;;;;;;;5.66;100.00;98770.59;15283915;19;20015;-44
2023/05/17 01:42:24;;;;;;;3.47;0.90;;;;;;;5.54;100.00;98770.59;15289467;19;20007;-43
2023/05/17 01:47:57;;;;;;;1.55;0.80;;;;;;;5.47;100.00;98771.19;15285204;19;20014;-43
2023/05/17 01:53:27;;;;;;;3.75;0.95;;;;;;;5.40;100.00;98776.16;15289964;19;20025;-43
2023/05/17 01:58:54;;;;;;;3.20;1.00;;;;;;;5.34;100.00;98776.66;15284747;19;20102;-44
2023/05/17 02:04:21;;;;;;;1.45;0.70;;;;;;;5.27;100.00;98786.09;15289386;19;20018;-43
2023/05/17 02:09:46;;;;;;;6.15;0.98;;;;;;;5.18;100.00;98785.84;15289013;19;20029;-42
2023/05/17 02:15:12;;;;;;;3.03;0.88;;;;;;;5.09;100.00;98789.22;15288022;19;20014;-45
2023/05/17 02:20:40;;;;;;;3.58;1.10;;;;;;;5.00;100.00;98790.78;15287907;19;20025;-44
2023/05/17 02:26:05;;;;;;;3.25;1.10;;;;;;;4.91;100.00;98786.97;15285549;19;20026;-43
2023/05/17 02:31:29;;;;;;;3.00;1.00;;;;;;;4.78;100.00;98794.19;15281776;19;20026;-43
2023/05/17 02:36:57;;;;;;;2.58;1.00;;;;;;;4.62;100.00;98790.03;15286926;19;20025;-43
2023/05/17 02:42:22;;;;;;;1.88;0.80;;;;;;;4.51;100.00;98795.31;15285733;19;20098;-44
2023/05/17 02:47:47;;;;;;;3.20;0.90;;;;;;;4.43;100.00;98787.00;15281890;19;20050;-44
2023/05/17 02:53:14;;;;;;;3.45;0.90;;;;;;;4.35;100.00;98797.41;15286900;19;20091;-45
2023/05/17 02:58:40;;;;;;;4.10;1.20;;;;;;;4.24;100.00;98787.50;15284325;19;20014;-45
2023/05/17 03:04:05;;;;;;;2.90;1.00;;;;;;;4.13;100.00;98804.28;15278610;19;20050;-45
2023/05/17 03:09:33;;;;;;;2.08;0.90;;;;;;;3.98;100.00;98804.44;15285833;19;20010;-47
2023/05/17 03:14:58;;;;;;;3.20;1.10;;;;;;;3.84;100.00;98801.91;15283196;19;20025;-46
2023/05/17 03:20:23;;;;;;;3.80;1.17;;;;;;;3.75;100.00;98815.88;15285486;19;20011;-44
2023/05/17 03:25:51;;;;;;;5.18;1.20;;;;;;;3.62;100.00;98822.06;15280183;19;20086;-44
2023/05/17 03:31:22;;;;;;;3.92;1.20;;;;;;;3.54;100.00;98827.09;15279332;19;20363;-44
2023/05/17 03:36:47;;;;;;;2.70;1.20;;;;;;;3.50;100.00;98834.44;15273902;19;20034;-44
2023/05/17 03:42:15;;;;;;;5.18;1.30;;;;;;;3.47;100.00;98841.81;15278783;19;20018;-43
2023/05/17 03:47:41;;;;;;;2.90;1.10;;;;;;;3.44;100.00;98842.00;15278071;19;20086;-43
2023/05/17 03:53:08;;;;;;;2.42;1.00;;;;;;;3.43;100.00;98850.94;15280746;19;20021;-46
2023/05/17 03:58:35;;;;;;;2.35;0.90;;;;;;;3.41;100.00;98858.19;15278139;19;20483;-43
2023/05/17 04:04:03;;;;;;;4.95;1.00;;;;;;;3.38;100.00;98865.44;15282079;19;20487;-44
2023/05/17 04:09:27;;;;;;;3.45;1.10;;;;;;;3.35;100.00;98865.63;15279570;19;20054;-44
2023/05/17 04:14:55;;;;;;;3.83;1.30;;;;;;;3.35;100.00;98870.13;15303275;19;20023;-45
2023/05/17 04:20:22;;;;;;;3.97;1.35;;;;;;;3.33;100.00;98883.53;15278530;19;20007;-46
2023/05/17 04:25:47;;;;;;;3.25;1.30;;;;;;;3.36;100.00;98887.81;15275205;19;20027;-45
2023/05/17 04:31:18;;;;;;;3.40;1.10;;;;;;;3.41;100.00;98887.50;15275186;19;20022;-46
2023/05/17 04:36:44;;;;;;;2.83;1.17;;;;;;;3.47;100.00;98892.41;15271485;19;20505;-44
2023/05/17 04:42:10;;;;;;;4.13;1.25;;;;;;;3.54;100.00;98893.69;15280379;19;20377;-43
2023/05/17 04:47:49;;;;;;;3.40;1.20;;;;;;;3.74;100.00;98907.44;15274356;19;20031;-44
2023/05/17 04:53:15;;;;;;;3.70;1.40;;;;;;;3.90;100.00;98902.78;15280586;19;20023;-44
2023/05/17 04:58:41;;;;;;;3.72;1.40;;;;;;;4.03;100.00;98913.41;15284219;19;20632;-43
2023/05/17 05:04:13;;;;;;;4.70;1.40;;;;;;;4.13;100.00;98918.97;15279416;19;20014;-43
2023/05/17 05:09:38;;;;;;;2.90;1.23;;;;;;;4.20;100.00;98919.38;15275332;19;20014;-44
2023/05/17 05:15:06;;;;;;;5.32;1.80;;;;;;;4.33;100.00;98920.22;15293839;19;20016;-44
2023/05/17 05:20:40;;;;;;;4.85;1.55;;;;;;;4.43;100.00;98928.41;15291825;19;20039;-46
2023/05/17 05:26:06;;;;;;;3.63;1.70;;;;;;;4.55;100.00;98943.53;15289069;19;20025;-46
2023/05/17 05:31:32;;;;;;;5.90;2.13;;;;;;;4.68;100.00;98954.19;15293279;19;20604;-43
2023/05/17 05:37:00;;;;;;;5.38;1.92;;;;;;;4.89;100.00;98959.78;15286658;19;20014;-44
2023/05/17 05:42:27;;;;;;;4.68;1.83;;;;;;;5.07;100.00;98964.75;15277667;19;20019;-44
2023/05/17 05:47:53;;;;;;;4.72;1.95;;;;;;;5.28;100.00;98985.50;15285695;19;20023;-44
2023/05/17 05:53:20;;;;;;;6.63;2.45;;;;;;;5.58;100.00;98997.56;15289815;19;20050;-46
2023/05/17 05:58:45;;;;;;;5.70;2.30;;;;;;;5.79;100.00;98990.56;15292613;19;20006;-45
2023/05/17 06:04:10;;;;;;;6.70;2.05;;;;;;;6.01;100.00;98994.31;15289475;19;20015;-46
2023/05/17 06:09:41;;;;;;;5.95;1.90;;;;;;;6.30;100.00;98994.72;15289963;19;20025;-43
2023/05/17 06:15:06;;;;;;;5.82;2.20;;;;;;;6.55;100.00;98994.59;15278276;19;20017;-42
2023/05/17 06:20:32;;;;;;;4.00;1.83;;;;;;;6.85;100.00;99007.38;15284832;19;20042;-43
2023/05/17 06:25:59;;;;;;;4.82;2.00;;;;;;;7.09;100.00;99001.00;15285028;19;20014;-45
2023/05/17 06:31:24;;;;;;;5.20;1.95;;;;;;;7.30;100.00;98993.06;15289583;19;20012;-43
2023/05/17 06:36:48;;;;;;;4.68;2.10;;;;;;;7.50;100.00;98987.88;15283655;19;20010;-46
2023/05/17 06:42:16;;;;;;;4.97;1.92;;;;;;;7.70;100.00;98992.41;15287436;19;20025;-43
2023/05/17 06:47:40;;;;;;;4.57;2.00;;;;;;;7.86;100.00;98999.16;15277503;19;20011;-46
2023/05/17 06:53:05;;;;;;;6.35;2.13;;;;;;;7.98;100.00;98998.13;15287380;19;20416;-44
2023/05/17 06:58:34;;;;;;;7.20;2.00;;;;;;;8.18;100.00;99004.50;15287898;19;20092;-47
2023/05/17 07:03:59;;;;;;;5.07;2.03;;;;;;;8.30;100.00;99002.56;15281998;19;20029;-45
2023/05/17 07:09:23;;;;;;;7.32;1.95;;;;;;;8.47;100.00;99002.94;15287271;19;20014;-44
2023/05/17 07:14:51;;;;;;;6.60;2.13;;;;;;;8.51;100.00;99009.78;15278740;19;20367;-43
2023/05/17 07:20:18;;;;;;;5.53;2.33;;;;;;;8.53;100.00;99005.13;15275034;19;20014;-47
2023/05/17 07:25:56;;;;;;;5.82;1.90;;;;;;;8.61;100.00;99005.31;15278647;19;20022;-45
2023/05/17 07:31:23;;;;;;;9.32;2.30;;;;;;;8.69;100.00;99001.09;15282197;19;20022;-44
2023/05/17 07:36:48;;;;;;;5.20;2.03;;;;;;;8.83;100.00;99007.94;15281921;19;20025;-45
2023/05/17 07:42:13;;;;;;;5.13;2.10;;;;;;;8.82;100.00;99007.09;15276946;19;20082;-44
2023/05/17 07:47:41;;;;;;;3.95;1.98;;;;;;;8.97;100.00;99004.88;15278205;19;20011;-44
2023/05/17 07:53:05;;;;;;;3.75;1.65;;;;;;;9.03;100.00;98998.97;15277410;19;20614;-43
2023/05/17 07:58:31;;;;;;;5.00;1.95;;;;;;;9.10;100.00;99001.97;15281650;19;20021;-45
2023/05/17 08:03:58;;;;;;;4.47;1.88;;;;;;;9.13;100.00;99011.56;15276031;19;20021;-46
2023/05/17 08:09:23;;;;;;;5.70;2.17;;;;;;;9.01;100.00;99003.63;15281712;19;20360;-43
2023/05/17 08:14:47;;;;;;;5.18;1.90;;;;;;;9.14;100.00;99014.13;15278988;19;20097;-47
2023/05/17 08:20:15;;;;;;;6.72;2.30;;;;;;;9.08;100.00;99020.06;15279273;19;20070;-43
2023/05/17 08:25:40;;;;;;;5.05;2.08;;;;;;;9.15;100.00;99018.50;15271755;19;20031;-45
2023/05/17 08:31:06;;;;;;;6.68;2.17;;;;;;;9.13;100.00;99017.78;15281469;19;20395;-46
2023/05/17 08:36:33;;;;;;;7.72;2.20;;;;;;;9.11;100.00;99025.16;15278233;19;20030;-45
2023/05/17 08:42:00;;;;;;;6.38;2.10;;;;;;;9.23;100.00;99029.41;15278209;19;20814;-45
2023/05/17 08:47:32;;;;;;;6.30;2.00;;;;;;;9.35;100.00;99040.91;15275947;19;20846;-45
2023/05/17 08:53:00;;;;;;;;;;;;;;;9.52;100.00;99035.88;15278567;19;20012;-47
2023/05/17 08:58:28;;;;;;;4.28;1.98;;;;;;;9.59;100.00;99042.38;15267671;19;19955;-43
2023/05/17 09:04:12;;;;;;;5.80;1.90;;;;;;;9.73;100.00;99043.78;15276078;19;20014;-46
2023/05/17 09:09:40;;;;;;;7.10;2.13;;;;;;;9.69;100.00;99026.25;15279357;19;20017;-46
2023/05/17 09:15:19;;;;;;;5.65;2.30;;;;;;;9.59;100.00;99036.13;15277416;19;20018;-47
2023/05/17 09:20:43;;;;;;;6.28;2.28;;;;;;;9.74;100.00;99033.91;15278895;19;20355;-46
2023/05/17 09:26:12;;;;;;;7.03;1.80;;;;;;;9.77;100.00;99037.16;15273742;19;20026;-44
2023/05/17 09:31:38;;;;;;;5.43;2.00;;;;;;;9.72;100.00;99042.09;15273578;19;20038;-46
2023/05/17 09:37:03;;;;;;;5.28;1.90;;;;;;;10.02;100.00;99032.19;15273901;19;20605;-45
2023/05/17 09:42:35;;;;;;;4.63;1.60;;;;;;;10.22;100.00;99032.16;15276476;19;20028;-44
2023/05/17 09:48:13;;;;;;;4.20;1.63;;;;;;;10.31;100.00;99032.16;15272128;19;20013;-44
2023/05/17 09:53:41;;;;;;;5.75;1.77;;;;;;;10.62;100.00;99031.13;15277305;19;20015;-46
2023/05/17 09:59:15;;;;;;;4.65;1.75;;;;;;;10.87;100.00;99031.47;15277553;19;20015;-43
2023/05/17 10:04:43;;;;;;;6.15;2.00;;;;;;;10.88;100.00;99027.75;15287044;19;20018;-44
2023/05/17 10:10:10;;;;;;;6.53;1.85;;;;;;;11.02;100.00;99034.53;15286341;19;20506;-47
2023/05/17 10:15:38;;;;;;;4.82;1.85;;;;;;;10.99;100.00;99034.81;15287662;19;20687;-45
2023/05/17 10:21:03;;;;;;;4.45;1.75;;;;;;;10.95;100.00;99040.50;15287112;19;20030;-47
2023/05/17 10:26:37;;;;;;;5.60;1.92;;;;;;;10.83;100.00;99057.00;15286800;19;20807;-46
2023/05/17 10:32:15;;;;;;;4.80;1.92;;;;;;;10.44;100.00;99064.19;15281955;19;20014;-47
2023/05/17 10:37:41;;;;;;;4.78;1.90;;;;;;;10.33;100.00;99067.03;15284650;19;20014;-45
2023/05/17 10:43:07;;;;;;;4.97;2.00;;;;;;;10.23;100.00;99082.34;15283922;19;20027;-47
2023/05/17 10:48:35;;;;;;;6.03;1.90;;;;;;;10.23;100.00;99082.34;15289362;19;20022;-47
2023/05/17 10:54:17;;;;;;;6.15;2.30;;;;;;;10.35;100.00;99073.13;15288565;19;20028;-46
2023/05/17 10:59:59;;;;;;;5.65;2.00;;;;;;;10.63;100.00;99068.69;15285235;19;20054;-46
2023/05/17 11:05:34;;;;;;;8.52;2.38;;;;;;;10.79;100.00;99051.91;15275534;19;20029;-46
2023/05/17 11:11:13;;;;;;;5.72;2.10;;;;;;;11.29;100.00;99040.91;15284691;19;20103;-45
2023/05/17 11:16:45;;;;;;;5.20;1.95;;;;;;;11.66;100.00;99034.56;15282318;19;20025;-45
2023/05/17 11:22:17;;;;;;;4.00;1.70;;;;;;;11.64;100.00;99036.59;15282399;19;20015;-49
2023/05/17 11:27:45;;;;;;;4.13;1.60;;;;;;;11.71;100.00;99030.38;15281196;19;20796;-44
2023/05/17 11:33:10;;;;;;;4.32;1.70;;;;;;;11.84;100.00;99035.44;15281976;19;20014;-48
2023/05/17 11:38:52;;;;;;;5.97;1.75;;;;;;;11.55;100.00;99041.03;15276917;19;20017;-47
2023/05/17 11:44:24;;;;;;;7.35;2.20;;;;;;;11.77;100.00;99041.59;15280926;19;20018;-45
2023/05/17 11:49:51;;;;;;;6.82;1.80;;;;;;;11.84;100.00;99034.56;15283466;19;19999;-47
2023/05/17 11:55:20;;;;;;;6.82;1.90;;;;;;;12.22;100.00;99032.56;15283022;19;20081;-46
2023/05/17 12:00:45;;;;;;;5.32;1.58;;;;;;;12.57;91.72;99030.78;15284596;19;20007;-49
2023/05/17 12:06:12;;;;;;;3.78;1.50;;;;;;;12.76;79.24;99036.97;15278045;19;20029;-44
2023/05/17 12:11:48;;;;;;;3.58;1.40;;;;;;;13.07;87.25;99022.94;15277504;19;20011;-49
2023/05/17 12:17:18;;;;;;;5.32;1.70;;;;;;;12.45;79.66;99023.94;15278672;19;20498;-50
2023/05/17 12:22:43;;;;;;;4.63;1.73;;;;;;;12.45;91.56;99022.09;15279042;19;20018;-44
2023/05/17 12:28:21;;;;;;;5.93;1.70;;;;;;;12.33;82.82;99035.00;15276253;19;20547;-45
2023/05/17 12:33:49;;;;;;;6.57;1.73;;;;;;;12.64;82.82;99014.78;15279703;19;20025;-47
2023/05/17 12:39:16;;;;;;;5.10;1.42;;;;;;;13.05;81.58;99016.84;15278411;19;20022;-45
2023/05/17 12:44:43;;;;;;;6.60;1.65;;;;;;;13.02;74.77;99027.97;15269370;19;20021;-46
2023/05/17 12:50:09;;;;;;;5.25;1.50;;;;;;;12.63;73.10;99027.47;15279136;19;20020;-47
2023/05/17 12:55:34;;;;;;;4.72;1.63;;;;;;;12.63;83.48;99023.88;15278789;19;20024;-46
2023/05/17 13:01:05;;;;;;;5.45;1.50;;;;;;;12.54;74.17;99020.28;15281309;19;20315;-45
2023/05/17 13:06:30;;;;;;;6.95;1.70;;;;;;;12.85;78.03;99017.09;15276254;19;20091;-46
2023/05/17 13:11:57;;;;;;;7.50;1.70;;;;;;;12.94;76.92;99015.25;15278114;19;20074;-46
2023/05/17 13:17:32;;;;;;;4.45;1.55;;;;;;;13.04;74.39;99025.97;15274197;19;20015;-45
2023/05/17 13:22:57;;;;;;;6.05;1.70;;;;;;;13.62;75.37;99018.91;15276949;19;20015;-47
2023/05/17 13:28:29;;;;;;;6.28;1.52;;;;;;;13.87;62.76;99006.25;15274044;19;20025;-46
2023/05/17 13:33:56;;;;;;;5.40;1.50;;;;;;;13.83;64.43;99010.28;15288573;19;20011;-49
2023/05/17 13:39:21;;;;;;;6.70;1.85;;;;;;;13.40;67.33;99018.53;15292364;19;20010;-50
2023/05/17 13:44:45;;;;;;;6.75;1.70;;;;;;;13.43;68.81;99014.63;15280934;19;20019;-46
2023/05/17 13:50:15;;;;;;;5.28;1.92;;;;;;;13.50;66.03;99018.38;15290974;19;20006;-45
2023/05/17 13:55:40;;;;;;;8.35;1.52;;;;;;;13.30;67.08;99016.94;15289526;19;20322;-45
2023/05/17 14:01:05;;;;;;;4.93;1.60;;;;;;;13.71;66.15;99014.34;15290417;19;20021;-46
2023/05/17 14:06:33;;;;;;;4.88;1.67;;;;;;;13.61;61.46;99022.63;15287029;19;20364;-48
2023/05/17 14:11:58;;;;;;;5.07;1.75;;;;;;;14.16;59.24;99021.16;15288514;19;20480;-47
2023/05/17 14:17:22;;;;;;;3.58;1.40;;;;;;;14.25;59.24;99034.69;15276637;19;20025;-45
2023/05/17 14:22:50;;;;;;;7.85;1.67;;;;;;;14.29;61.57;99034.19;15287944;19;20054;-46
2023/05/17 14:28:15;;;;;;;6.90;1.70;;;;;;;14.58;58.61;99034.66;15283074;19;20109;-45
2023/05/17 14:33:40;;;;;;;4.47;1.55;;;;;;;14.95;58.58;99031.38;15288420;19;20025;-48
2023/05/17 14:39:07;;;;;;;6.38;1.60;;;;;;;14.63;57.39;99043.13;15288551;19;20011;-47
2023/05/17 14:44:33;;;;;;;6.07;1.65;;;;;;;14.27;57.93;99047.06;15283116;19;20018;-45
2023/05/17 14:49:58;;;;;;;4.30;1.40;;;;;;;14.88;57.18;99045.81;15279155;19;20478;-49
2023/05/17 14:55:26;;;;;;;5.05;1.42;;;;;;;15.24;56.40;99048.06;15284963;19;20029;-49
2023/05/17 15:00:56;;;;;;;7.93;1.80;;;;;;;15.41;53.64;99052.41;15285226;19;20026;-45
2023/05/17 15:06:24;;;;;;;5.25;1.50;;;;;;;15.76;55.29;99056.63;15279608;19;20094;-45
2023/05/17 15:11:53;;;;;;;2.95;1.40;;;;;;;16.03;52.95;99049.84;15279356;19;20035;-48
2023/05/17 15:17:18;;;;;;;5.75;1.60;;;;;;;16.09;53.76;99048.28;15277562;19;20518;-50
2023/05/17 15:22:43;;;;;;;5.63;1.77;;;;;;;15.74;54.13;99062.25;15278209;19;20007;-50
2023/05/17 15:28:11;;;;;;;5.13;1.40;;;;;;;15.66;54.21;99055.00;15278729;19;20841;-46
2023/05/17 15:33:38;;;;;;;4.90;1.60;;;;;;;15.22;52.24;99060.97;15283932;19;20082;-49
2023/05/17 15:39:02;;;;;;;5.38;1.73;;;;;;;15.99;54.31;99073.00;15282657;19;20510;-49
2023/05/17 15:44:29;;;;;;;4.03;1.60;;;;;;;16.01;53.07;99063.63;15279969;19;20448;-48
2023/05/17 15:49:54;;;;;;;3.97;1.50;;;;;;;16.12;53.78;99070.50;15280184;19;20021;-47
2023/05/17 15:55:19;;;;;;;4.28;1.65;;;;;;;16.12;52.30;99062.34;15272219;19;20048;-48
2023/05/17 16:00:46;;;;;;;5.72;2.10;;;;;;;16.47;51.24;99060.00;15282712;19;20470;-51
2023/05/17 16:06:10;;;;;;;4.70;1.85;;;;;;;16.18;51.35;99063.50;15278513;19;20014;-48
2023/05/17 16:11:35;;;;;;;4.47;1.35;;;;;;;16.92;52.21;99059.25;15280234;19;20101;-52
2023/05/17 16:17:03;;;;;;;6.60;1.70;;;;;;;16.26;50.33;99066.16;15279134;19;20089;-48
2023/05/17 16:22:28;;;;;;;4.28;1.58;;;;;;;16.15;51.36;99061.16;15279062;19;20010;-47
2023/05/17 16:28:01;;;;;;;6.03;1.75;;;;;;;16.12;50.15;99064.22;15269895;19;20877;-46
2023/05/17 16:33:28;;;;;;;5.60;1.63;;;;;;;16.58;51.05;99071.50;15280955;19;20069;-53
2023/05/17 16:38:53;;;;;;;3.40;1.48;;;;;;;16.34;50.17;99078.84;15277142;19;20077;-52
2023/05/17 16:44:17;;;;;;;4.22;1.60;;;;;;;15.89;49.61;99070.50;15277185;19;20022;-47
2023/05/17 16:49:45;;;;;;;3.25;1.42;;;;;;;15.72;49.50;99086.03;15278940;19;20014;-46
2023/05/17 16:55:11;;;;;;;8.50;1.75;;;;;;;14.89;50.12;99085.47;15271165;19;20010;-47
2023/05/17 17:00:36;;;;;;;7.80;1.85;;;;;;;15.15;51.71;99085.25;15272524;19;20022;-50
2023/05/17 17:06:03;;;;;;;5.43;1.60;;;;;;;14.94;51.41;99088.53;15279768;19;20016;-44
2023/05/17 17:11:28;;;;;;;6.07;1.65;;;;;;;15.14;52.75;99096.28;15295055;19;20017;-49
2023/05/17 17:16:52;;;;;;;3.88;1.40;;;;;;;15.08;52.32;99093.25;15289502;19;20025;-49
2023/05/17 17:22:20;;;;;;;3.95;1.48;;;;;;;14.81;51.93;99097.22;15294223;19;20031;-46
2023/05/17 17:27:46;;;;;;;4.90;1.50;;;;;;;14.77;51.81;99102.13;15285152;19;20015;-46
2023/05/17 17:33:12;;;;;;;6.60;1.60;;;;;;;14.77;52.86;99102.13;15283752;19;20018;-46
2023/05/17 17:38:42;;;;;;;5.22;1.60;;;;;;;14.53;51.45;99091.25;15291761;19;20039;-48
2023/05/17 17:44:08;;;;;;;5.32;1.60;;;;;;;14.58;53.09;99099.75;15294181;19;20038;-45
2023/05/17 17:49:34;;;;;;;4.50;1.35;;;;;;;14.55;53.31;99103.66;15293480;19;20016;-45
2023/05/17 17:55:02;;;;;;;6.00;1.77;;;;;;;14.33;53.45;99119.59;15291012;19;20429;-45
2023/05/17 18:00:26;;;;;;;5.90;1.60;;;;;;;14.11;53.60;99104.81;15288767;19;20031;-45
2023/05/17 18:05:52;;;;;;;8.68;1.80;;;;;;;14.04;54.17;99101.09;15281607;19;20481;-46
2023/05/17 18:11:19;;;;;;;3.95;1.48;;;;;;;13.69;54.94;99119.28;15292461;19;20408;-48
2023/05/17 18:16:44;;;;;;;4.68;1.38;;;;;;;13.60;56.03;99117.53;15287098;19;20022;-44
2023/05/17 18:22:09;;;;;;;4.40;1.40;;;;;;;13.31;56.81;99124.16;15291453;19;20039;-50
2023/05/17 18:27:43;;;;;;;5.20;1.60;;;;;;;13.11;57.42;99132.53;15283234;19;20032;-49
2023/05/17 18:33:08;;;;;;;5.47;1.60;;;;;;;12.87;58.49;99135.91;15288573;19;20031;-47
2023/05/17 18:38:34;;;;;;;6.60;1.70;;;;;;;12.52;59.56;99143.94;15281944;19;20010;-48
2023/05/17 18:44:01;;;;;;;4.30;1.50;;;;;;;12.07;61.01;99147.56;15287022;19;20735;-46
2023/05/17 18:49:29;;;;;;;4.82;1.55;;;;;;;11.87;62.21;99153.06;15287453;19;20031;-48
2023/05/17 18:54:53;;;;;;;5.05;1.50;;;;;;;11.76;64.32;99155.97;15285494;19;20573;-45
2023/05/17 19:00:24;;;;;;;4.60;1.60;;;;;;;11.56;66.40;99156.09;15286238;19;20086;-47
2023/05/17 19:05:49;;;;;;;4.35;1.50;;;;;;;11.19;69.99;99162.34;15281709;19;20025;-48
2023/05/17 19:11:13;;;;;;;6.30;1.40;;;;;;;10.88;73.49;99176.00;15276067;19;20090;-45
2023/05/17 19:16:40;;;;;;;5.88;1.50;;;;;;;10.59;80.61;99179.63;15284288;19;20021;-48
2023/05/17 19:22:05;;;;;;;5.47;1.50;;;;;;;10.40;84.60;99181.34;15286772;19;20024;-49
2023/05/17 19:27:29;;;;;;;5.85;1.60;;;;;;;10.27;90.59;99196.88;15279847;19;20081;-46
2023/05/17 19:32:58;;;;;;;4.65;1.38;;;;;;;10.13;94.48;99187.34;15287043;19;20018;-46
2023/05/17 19:38:22;;;;;;;4.78;1.60;;;;;;;10.02;98.36;99196.41;15277770;19;20016;-45
2023/05/17 19:43:47;;;;;;;4.78;1.55;;;;;;;9.87;98.68;99199.50;15278075;19;20025;-52
2023/05/17 19:49:14;;;;;;;4.75;1.63;;;;;;;9.82;100.00;99208.97;15284444;19;20014;-48
2023/05/17 19:54:40;;;;;;;6.10;1.50;;;;;;;9.75;100.00;99214.03;15280736;19;20021;-49
2023/05/17 20:00:08;;;;;;;5.35;1.55;;;;;;;9.69;100.00;99215.44;15282296;19;20006;-46
2023/05/17 20:05:36;;;;;;;4.43;1.50;;;;;;;9.65;100.00;99214.00;15281107;19;20037;-51
2023/05/17 20:11:00;;;;;;;5.57;1.40;;;;;;;9.58;100.00;99212.00;15273776;19;20129;-50
2023/05/17 20:16:26;;;;;;;4.75;1.50;;;;;;;9.55;100.00;99208.59;15281139;19;20074;-44
2023/05/17 20:21:55;;;;;;;4.40;1.30;;;;;;;9.47;100.00;99221.84;15283834;19;20014;-50
2023/05/17 20:27:28;;;;;;;4.93;1.50;;;;;;;9.42;100.00;99221.41;15276438;19;20082;-45
2023/05/17 20:32:53;;;;;;;;;;;;;;;9.35;100.00;99217.56;15283179;19;20010;-46
2023/05/17 20:38:21;;;;;;;4.80;1.30;;;;;;;9.31;100.00;99224.19;15265259;19;19919;-50
2023/05/17 20:43:48;;;;;;;7.43;1.40;;;;;;;9.29;100.00;99228.84;15260569;19;20077;-48
2023/05/17 20:49:13;;;;;;;6.55;1.70;;;;;;;9.23;100.00;99240.97;15268290;19;20506;-46
2023/05/17 20:54:42;;;;;;;4.88;1.27;;;;;;;9.19;100.00;99245.78;15242816;19;20014;-48
2023/05/17 21:00:08;;;;;;;10.02;1.50;;;;;;;9.15;100.00;99238.94;15267219;19;20011;-44
2023/05/17 21:05:35;;;;;;;4.47;1.30;;;;;;;9.22;100.00;99240.16;15258504;19;20358;-44
2023/05/17 21:11:03;;;;;;;7.13;1.48;;;;;;;9.24;100.00;99248.91;15263948;19;20022;-43
2023/05/17 21:16:28;;;;;;;5.80;1.23;;;;;;;9.16;100.00;99237.97;15254940;19;20021;-46
2023/05/17 21:21:52;;;;;;;5.05;1.48;;;;;;;9.08;100.00;99237.78;15266014;19;20006;-43
2023/05/17 21:27:19;;;;;;;3.30;1.20;;;;;;;8.98;100.00;99235.03;15258320;19;20025;-44
2023/05/17 21:32:44;;;;;;;5.43;1.40;;;;;;;8.89;100.00;99233.97;15266370;19;20014;-44
2023/05/17 21:38:08;;;;;;;7.13;1.45;;;;;;;8.72;100.00;99243.47;15261655;19;20558;-47
2023/05/17 21:43:36;;;;;;;5.13;1.33;;;;;;;8.62;100.00;99238.03;15265128;19;20018;-45
2023/05/17 21:49:00;;;;;;;5.95;1.50;;;;;;;8.54;100.00;99239.63;15259326;19;20086;-46
2023/05/17 21:54:25;;;;;;;4.03;1.45;;;;;;;8.45;100.00;99241.22;15273308;19;20489;-43
2023/05/17 21:59:52;;;;;;;4.97;1.45;;;;;;;8.41;100.00;99242.47;15275791;19;20025;-47
2023/05/17 22:05:18;;;;;;;5.68;1.50;;;;;;;8.29;100.00;99236.28;15277220;19;20324;-43
2023/05/17 22:10:43;;;;;;;4.68;1.38;;;;;;;8.26;100.00;99242.75;15278043;19;20018;-52
2023/05/17 22:16:10;;;;;;;5.22;1.48;;;;;;;8.20;100.00;99243.25;15272614;19;20011;-46
2023/05/17 22:21:35;;;;;;;5.93;1.45;;;;;;;8.17;100.00;99251.56;15272653;19;20038;-44
2023/05/17 22:26:59;;;;;;;5.25;1.40;;;;;;;8.05;100.00;99252.56;15271320;19;20037;-44
2023/05/17 22:32:27;;;;;;;6.10;1.63;;;;;;;7.99;100.00;99257.44;15277551;19;20018;-45
2023/05/17 22:37:53;;;;;;;4.30;1.42;;;;;;;7.90;100.00;99262.69;15273803;19;20485;-45
2023/05/17 22:43:20;;;;;;;5.35;1.27;;;;;;;7.85;100.00;99257.69;15279772;19;20027;-45
2023/05/17 22:48:48;;;;;;;6.07;1.35;;;;;;;7.80;100.00;99259.91;15272804;19;20015;-45
2023/05/17 22:54:14;;;;;;;4.03;1.23;;;;;;;7.76;100.00;99266.47;15271120;19;20370;-49
2023/05/17 22:59:42;;;;;;;4.60;1.30;;;;;;;7.61;100.00;99264.03;15278776;19;20642;-45
2023/05/17 23:05:11;;;;;;;5.22;1.30;;;;;;;7.49;100.00;99265.88;15272978;19;20479;-43
2023/05/17 23:10:36;;;;;;;5.47;1.30;;;;;;;7.36;100.00;99271.34;15277953;19;20021;-44
2023/05/17 23:16:03;;;;;;;4.38;1.33;;;;;;;7.20;100.00;99271.66;15276803;19;20019;-44
2023/05/17 23:21:32;;;;;;;4.75;1.40;;;;;;;7.05;100.00;99265.69;15275629;19;20020;-45
2023/05/17 23:27:04;;;;;;;3.85;1.33;;;;;;;6.92;100.00;99272.94;15265921;19;20359;-49
2023/05/17 23:32:36;;;;;;;3.37;1.30;;;;;;;6.83;100.00;99270.97;15282420;19;20018;-45
2023/05/17 23:38:05;;;;;;;4.65;1.42;;;;;;;6.67;100.00;99274.78;15277892;19;20090;-44
2023/05/17 23:43:30;;;;;;;4.20;1.40;;;;;;;6.55;100.00;99275.72;15277539;19;20010;-45
2023/05/17 23:48:56;;;;;;;6.18;1.42;;;;;;;6.52;100.00;99279.47;15273626;19;20017;-44
2023/05/17 23:54:24;;;;;;;4.80;1.40;;;;;;;6.52;100.00;99278.66;15271088;19;20339;-45
2023/05/17 23:59:49;;;;;;;5.85;1.60;;;;;;;6.54;100.00;99279.34;15268025;19;20014;-42
